sensor_id;sensor_type;location;lat;lon;timestamp;pressure;altitude;pressure_sealevel;temperature;humidity
20394;BME280;10356;50.544;9.642;2023-05-01T00:01:30;98462.94;;;8.32;91.13
20394;BME280;10356;50.544;9.642;2023-05-01T00:03:56;98464.56;;;8.33;91.00
20394;BME280;10356;50.544;9.642;2023-05-01T00:06:23;98462.94;;;8.32;91.12
20394;BME280;10356;50.544;9.642;2023-05-01T00:08:51;98458.88;;;8.28;90.89
20394;BME280;10356;50.544;9.642;2023-05-01T00:11:18;98462.56;;;8.24;91.35
20394;BME280;10356;50.544;9.642;2023-05-01T00:13:45;98452.72;;;8.29;90.61
20394;BME280;10356;50.544;9.642;2023-05-01T00:16:11;98451.81;;;8.30;90.35
20394;BME280;10356;50.544;9.642;2023-05-01T00:18:38;98442.22;;;8.30;89.78
20394;BME280;10356;50.544;9.642;2023-05-01T00:21:05;98447.03;;;8.36;89.59
20394;BME280;10356;50.544;9.642;2023-05-01T00:23:31;98447.69;;;8.40;89.72
20394;BME280;10356;50.544;9.642;2023-05-01T00:25:59;98446.22;;;8.36;89.47
20394;BME280;10356;50.544;9.642;2023-05-01T00:28:26;98439.47;;;8.33;88.96
20394;BME280;10356;50.544;9.642;2023-05-01T00:30:52;98440.38;;;8.32;88.75
20394;BME280;10356;50.544;9.642;2023-05-01T00:33:19;98441.03;;;8.36;88.73
20394;BME280;10356;50.544;9.642;2023-05-01T00:35:45;98434.38;;;8.32;88.88
20394;BME280;10356;50.544;9.642;2023-05-01T00:38:12;98434.03;;;8.36;88.63
20394;BME280;10356;50.544;9.642;2023-05-01T00:40:41;98429.69;;;8.37;88.46
20394;BME280;10356;50.544;9.642;2023-05-01T00:43:10;98432.09;;;8.40;88.30
20394;BME280;10356;50.544;9.642;2023-05-01T00:45:37;98425.63;;;8.33;88.15
20394;BME280;10356;50.544;9.642;2023-05-01T00:48:05;98424.00;;;8.32;88.09
20394;BME280;10356;50.544;9.642;2023-05-01T00:50:32;98417.50;;;8.25;89.72
20394;BME280;10356;50.544;9.642;2023-05-01T00:52:58;98420.19;;;8.23;89.46
20394;BME280;10356;50.544;9.642;2023-05-01T00:55:25;98405.84;;;8.18;89.38
20394;BME280;10356;50.544;9.642;2023-05-01T00:57:52;98406.03;;;8.15;89.54
20394;BME280;10356;50.544;9.642;2023-05-01T01:00:21;98406.84;;;8.03;89.81
20394;BME280;10356;50.544;9.642;2023-05-01T01:02:49;98400.19;;;7.99;90.93
20394;BME280;10356;50.544;9.642;2023-05-01T01:05:16;98397.88;;;7.94;90.86
20394;BME280;10356;50.544;9.642;2023-05-01T01:07:48;98387.81;;;7.90;90.93
20394;BME280;10356;50.544;9.642;2023-05-01T01:10:25;98393.19;;;7.87;90.71
20394;BME280;10356;50.544;9.642;2023-05-01T01:12:57;98386.19;;;7.75;91.23
20394;BME280;10356;50.544;9.642;2023-05-01T01:15:34;98376.00;;;7.72;91.47
20394;BME280;10356;50.544;9.642;2023-05-01T01:18:07;98379.63;;;7.69;91.43
20394;BME280;10356;50.544;9.642;2023-05-01T01:20:40;98374.75;;;7.64;91.26
20394;BME280;10356;50.544;9.642;2023-05-01T01:23:48;98370.69;;;7.60;91.64
20394;BME280;10356;50.544;9.642;2023-05-01T01:26:59;98370.91;;;7.43;92.34
20394;BME280;10356;50.544;9.642;2023-05-01T01:29:44;98377.13;;;7.41;92.34
20394;BME280;10356;50.544;9.642;2023-05-01T01:32:32;98364.44;;;7.36;92.90
20394;BME280;10356;50.544;9.642;2023-05-01T01:35:06;98359.44;;;7.33;92.69
20394;BME280;10356;50.544;9.642;2023-05-01T01:37:39;98356.13;;;7.31;92.60
20394;BME280;10356;50.544;9.642;2023-05-01T01:40:11;98359.00;;;7.27;92.63
20394;BME280;10356;50.544;9.642;2023-05-01T01:42:41;98363.75;;;7.20;92.57
20394;BME280;10356;50.544;9.642;2023-05-01T01:45:14;98357.25;;;7.13;93.42
20394;BME280;10356;50.544;9.642;2023-05-01T01:47:44;98348.69;;;7.13;93.01
20394;BME280;10356;50.544;9.642;2023-05-01T01:50:13;98341.28;;;7.07;93.05
20394;BME280;10356;50.544;9.642;2023-05-01T01:52:42;98341.94;;;6.96;93.65
20394;BME280;10356;50.544;9.642;2023-05-01T01:55:11;98337.25;;;6.89;94.17
20394;BME280;10356;50.544;9.642;2023-05-01T01:57:39;98337.31;;;6.87;93.97
20394;BME280;10356;50.544;9.642;2023-05-01T02:00:09;98336.56;;;6.85;94.19
20394;BME280;10356;50.544;9.642;2023-05-01T02:02:37;98331.75;;;6.79;94.43
20394;BME280;10356;50.544;9.642;2023-05-01T02:05:06;98328.63;;;6.74;94.44
20394;BME280;10356;50.544;9.642;2023-05-01T02:07:36;98326.22;;;6.71;94.56
20394;BME280;10356;50.544;9.642;2023-05-01T02:10:06;98325.84;;;6.63;95.25
20394;BME280;10356;50.544;9.642;2023-05-01T02:12:34;98334.91;;;6.56;95.04
20394;BME280;10356;50.544;9.642;2023-05-01T02:15:01;98328.38;;;6.50;94.87
20394;BME280;10356;50.544;9.642;2023-05-01T02:17:29;98326.16;;;6.44;95.63
20394;BME280;10356;50.544;9.642;2023-05-01T02:19:56;98315.88;;;6.43;95.40
20394;BME280;10356;50.544;9.642;2023-05-01T02:22:23;98322.78;;;6.42;95.76
20394;BME280;10356;50.544;9.642;2023-05-01T02:24:52;98320.50;;;6.38;95.56
20394;BME280;10356;50.544;9.642;2023-05-01T02:27:21;98320.03;;;6.31;95.70
20394;BME280;10356;50.544;9.642;2023-05-01T02:29:50;98322.88;;;6.27;96.12
20394;BME280;10356;50.544;9.642;2023-05-01T02:32:17;98315.19;;;6.25;96.21
20394;BME280;10356;50.544;9.642;2023-05-01T02:34:44;98312.25;;;6.17;96.13
20394;BME280;10356;50.544;9.642;2023-05-01T02:37:11;98310.56;;;6.16;96.07
20394;BME280;10356;50.544;9.642;2023-05-01T02:39:38;98306.31;;;6.15;96.51
20394;BME280;10356;50.544;9.642;2023-05-01T02:42:07;98304.75;;;6.13;96.90
20394;BME280;10356;50.544;9.642;2023-05-01T02:44:38;98299.56;;;6.13;97.04
20394;BME280;10356;50.544;9.642;2023-05-01T02:47:06;98294.59;;;6.10;96.89
20394;BME280;10356;50.544;9.642;2023-05-01T02:49:35;98296.06;;;6.14;96.90
20394;BME280;10356;50.544;9.642;2023-05-01T02:52:04;98295.88;;;6.17;96.78
20394;BME280;10356;50.544;9.642;2023-05-01T02:54:30;98297.72;;;6.15;96.86
20394;BME280;10356;50.544;9.642;2023-05-01T02:56:57;98298.47;;;6.17;97.43
20394;BME280;10356;50.544;9.642;2023-05-01T02:59:25;98294.22;;;6.16;97.71
20394;BME280;10356;50.544;9.642;2023-05-01T03:01:51;98290.69;;;6.17;97.60
20394;BME280;10356;50.544;9.642;2023-05-01T03:04:18;98292.75;;;6.12;97.72
20394;BME280;10356;50.544;9.642;2023-05-01T03:06:44;98298.91;;;6.09;97.81
20394;BME280;10356;50.544;9.642;2023-05-01T03:09:11;98293.00;;;6.07;97.79
20394;BME280;10356;50.544;9.642;2023-05-01T03:11:37;98289.56;;;6.07;97.88
20394;BME280;10356;50.544;9.642;2023-05-01T03:14:04;98282.94;;;6.03;98.10
20394;BME280;10356;50.544;9.642;2023-05-01T03:16:32;98277.94;;;6.00;98.02
20394;BME280;10356;50.544;9.642;2023-05-01T03:18:58;98278.00;;;5.98;98.17
20394;BME280;10356;50.544;9.642;2023-05-01T03:21:25;98276.47;;;5.96;98.07
20394;BME280;10356;50.544;9.642;2023-05-01T03:23:51;98282.91;;;5.88;98.76
20394;BME280;10356;50.544;9.642;2023-05-01T03:26:17;98273.50;;;5.87;98.56
20394;BME280;10356;50.544;9.642;2023-05-01T03:28:44;98281.41;;;5.84;98.75
20394;BME280;10356;50.544;9.642;2023-05-01T03:31:10;98277.31;;;5.80;98.51
20394;BME280;10356;50.544;9.642;2023-05-01T03:33:39;98278.25;;;5.79;98.69
20394;BME280;10356;50.544;9.642;2023-05-01T03:36:06;98274.97;;;5.76;98.50
20394;BME280;10356;50.544;9.642;2023-05-01T03:38:33;98274.31;;;5.72;98.91
20394;BME280;10356;50.544;9.642;2023-05-01T03:41:00;98278.94;;;5.67;99.28
20394;BME280;10356;50.544;9.642;2023-05-01T03:43:26;98277.09;;;5.69;99.26
20394;BME280;10356;50.544;9.642;2023-05-01T03:45:53;98279.69;;;5.69;99.31
20394;BME280;10356;50.544;9.642;2023-05-01T03:48:20;98271.00;;;5.70;98.95
20394;BME280;10356;50.544;9.642;2023-05-01T03:50:48;98271.75;;;5.72;99.06
20394;BME280;10356;50.544;9.642;2023-05-01T03:53:15;98268.31;;;5.72;99.22
20394;BME280;10356;50.544;9.642;2023-05-01T03:55:42;98275.31;;;5.70;99.43
20394;BME280;10356;50.544;9.642;2023-05-01T03:58:09;98266.78;;;5.69;99.83
20394;BME280;10356;50.544;9.642;2023-05-01T04:00:35;98276.34;;;5.67;99.82
20394;BME280;10356;50.544;9.642;2023-05-01T04:03:02;98273.09;;;5.64;100.00
20394;BME280;10356;50.544;9.642;2023-05-01T04:05:29;98275.78;;;5.62;100.00
20394;BME280;10356;50.544;9.642;2023-05-01T04:07:56;98270.59;;;5.62;100.00
20394;BME280;10356;50.544;9.642;2023-05-01T04:10:23;98270.59;;;5.62;99.71
20394;BME280;10356;50.544;9.642;2023-05-01T04:12:50;98265.44;;;5.62;99.67
20394;BME280;10356;50.544;9.642;2023-05-01T04:15:16;98271.53;;;5.61;99.46
20394;BME280;10356;50.544;9.642;2023-05-01T04:17:43;98277.53;;;5.62;99.56
20394;BME280;10356;50.544;9.642;2023-05-01T04:20:10;98276.72;;;5.61;99.81
20394;BME280;10356;50.544;9.642;2023-05-01T04:22:36;98271.59;;;5.60;99.97
20394;BME280;10356;50.544;9.642;2023-05-01T04:25:05;98280.03;;;5.63;99.88
20394;BME280;10356;50.544;9.642;2023-05-01T04:27:33;98275.44;;;5.68;99.41
20394;BME280;10356;50.544;9.642;2023-05-01T04:29:59;98273.59;;;5.70;100.00
20394;BME280;10356;50.544;9.642;2023-05-01T04:32:25;98270.56;;;5.78;99.22
20394;BME280;10356;50.544;9.642;2023-05-01T04:34:52;98268.47;;;5.84;99.39
20394;BME280;10356;50.544;9.642;2023-05-01T04:37:18;98268.97;;;5.91;99.37
20394;BME280;10356;50.544;9.642;2023-05-01T04:39:45;98269.16;;;6.02;99.45
20394;BME280;10356;50.544;9.642;2023-05-01T04:42:13;98277.22;;;6.12;99.04
20394;BME280;10356;50.544;9.642;2023-05-01T04:44:39;98275.91;;;6.19;98.68
20394;BME280;10356;50.544;9.642;2023-05-01T04:47:05;98270.59;;;6.22;98.49
20394;BME280;10356;50.544;9.642;2023-05-01T04:49:32;98278.34;;;6.36;98.27
20394;BME280;10356;50.544;9.642;2023-05-01T04:51:58;98273.53;;;6.44;97.83
20394;BME280;10356;50.544;9.642;2023-05-01T04:54:25;98271.97;;;6.55;97.27
20394;BME280;10356;50.544;9.642;2023-05-01T04:56:52;98278.34;;;6.64;96.00
20394;BME280;10356;50.544;9.642;2023-05-01T04:59:20;98273.91;;;6.66;95.33
20394;BME280;10356;50.544;9.642;2023-05-01T05:01:46;98277.03;;;6.71;95.20
20394;BME280;10356;50.544;9.642;2023-05-01T05:04:12;98277.97;;;6.70;95.21
20394;BME280;10356;50.544;9.642;2023-05-01T05:06:39;98274.06;;;6.77;94.99
20394;BME280;10356;50.544;9.642;2023-05-01T05:09:05;98275.34;;;6.84;94.64
20394;BME280;10356;50.544;9.642;2023-05-01T05:11:32;98281.28;;;6.86;94.79
20394;BME280;10356;50.544;9.642;2023-05-01T05:13:58;98279.88;;;6.95;94.23
20394;BME280;10356;50.544;9.642;2023-05-01T05:16:26;98266.44;;;7.02;93.85
20394;BME280;10356;50.544;9.642;2023-05-01T05:18:54;98272.88;;;7.09;93.34
20394;BME280;10356;50.544;9.642;2023-05-01T05:21:20;98275.78;;;7.05;93.39
20394;BME280;10356;50.544;9.642;2023-05-01T05:23:47;98271.28;;;7.21;93.32
20394;BME280;10356;50.544;9.642;2023-05-01T05:26:13;98265.50;;;7.30;93.22
20394;BME280;10356;50.544;9.642;2023-05-01T05:28:40;98268.06;;;7.44;92.98
20394;BME280;10356;50.544;9.642;2023-05-01T05:31:06;98265.00;;;7.37;91.53
20394;BME280;10356;50.544;9.642;2023-05-01T05:33:34;98266.81;;;7.49;92.01
20394;BME280;10356;50.544;9.642;2023-05-01T05:36:01;98261.78;;;7.60;90.85
20394;BME280;10356;50.544;9.642;2023-05-01T05:38:27;98262.28;;;7.65;91.05
20394;BME280;10356;50.544;9.642;2023-05-01T05:40:54;98259.19;;;7.60;90.01
20394;BME280;10356;50.544;9.642;2023-05-01T05:43:20;98261.06;;;7.58;91.21
20394;BME280;10356;50.544;9.642;2023-05-01T05:45:46;98259.66;;;7.80;90.58
20394;BME280;10356;50.544;9.642;2023-05-01T05:48:13;98255.09;;;7.96;89.08
20394;BME280;10356;50.544;9.642;2023-05-01T05:50:41;98249.59;;;8.13;89.28
20394;BME280;10356;50.544;9.642;2023-05-01T05:53:07;98251.66;;;8.20;88.31
20394;BME280;10356;50.544;9.642;2023-05-01T05:55:34;98247.66;;;8.41;87.52
20394;BME280;10356;50.544;9.642;2023-05-01T05:58:00;98246.50;;;8.58;87.12
20394;BME280;10356;50.544;9.642;2023-05-01T06:00:27;98249.88;;;8.71;85.65
20394;BME280;10356;50.544;9.642;2023-05-01T06:02:53;98249.03;;;8.83;83.37
20394;BME280;10356;50.544;9.642;2023-05-01T06:05:20;98247.44;;;8.93;82.84
20394;BME280;10356;50.544;9.642;2023-05-01T06:07:48;98240.97;;;8.99;82.10
20394;BME280;10356;50.544;9.642;2023-05-01T06:10:15;98241.88;;;9.10;82.07
20394;BME280;10356;50.544;9.642;2023-05-01T06:12:41;98237.81;;;9.19;79.98
20394;BME280;10356;50.544;9.642;2023-05-01T06:15:08;98237.44;;;9.23;78.19
20394;BME280;10356;50.544;9.642;2023-05-01T06:17:36;98239.06;;;9.13;77.30
20394;BME280;10356;50.544;9.642;2023-05-01T06:20:03;98241.22;;;9.19;76.41
20394;BME280;10356;50.544;9.642;2023-05-01T06:22:30;98233.31;;;9.21;78.37
20394;BME280;10356;50.544;9.642;2023-05-01T06:24:58;98234.41;;;9.06;79.67
20394;BME280;10356;50.544;9.642;2023-05-01T06:27:25;98232.19;;;9.36;78.16
20394;BME280;10356;50.544;9.642;2023-05-01T06:29:51;98235.00;;;9.57;78.56
20394;BME280;10356;50.544;9.642;2023-05-01T06:32:18;98232.69;;;9.76;79.50
20394;BME280;10356;50.544;9.642;2023-05-01T06:34:44;98229.88;;;9.79;78.05
20394;BME280;10356;50.544;9.642;2023-05-01T06:37:11;98227.41;;;9.88;76.26
20394;BME280;10356;50.544;9.642;2023-05-01T06:39:37;98240.34;;;10.01;75.69
20394;BME280;10356;50.544;9.642;2023-05-01T06:42:05;98233.63;;;10.09;74.89
20394;BME280;10356;50.544;9.642;2023-05-01T06:44:32;98233.25;;;10.03;76.69
20394;BME280;10356;50.544;9.642;2023-05-01T06:46:58;98230.50;;;10.04;75.37
20394;BME280;10356;50.544;9.642;2023-05-01T06:49:25;98225.84;;;10.21;75.79
20394;BME280;10356;50.544;9.642;2023-05-01T06:51:52;98224.78;;;10.45;74.96
20394;BME280;10356;50.544;9.642;2023-05-01T06:54:18;98219.09;;;10.51;74.01
20394;BME280;10356;50.544;9.642;2023-05-01T06:56:45;98231.88;;;10.76;71.79
20394;BME280;10356;50.544;9.642;2023-05-01T06:59:13;98223.34;;;10.63;71.20
20394;BME280;10356;50.544;9.642;2023-05-01T07:01:39;98222.75;;;10.82;70.46
20394;BME280;10356;50.544;9.642;2023-05-01T07:04:06;98223.69;;;10.81;69.93
20394;BME280;10356;50.544;9.642;2023-05-01T07:06:32;98217.72;;;11.01;70.84
20394;BME280;10356;50.544;9.642;2023-05-01T07:08:59;98224.41;;;11.37;69.85
20394;BME280;10356;50.544;9.642;2023-05-01T07:11:26;98216.47;;;11.59;67.87
20394;BME280;10356;50.544;9.642;2023-05-01T07:13:52;98217.84;;;11.74;69.86
20394;BME280;10356;50.544;9.642;2023-05-01T07:16:20;98216.44;;;12.11;68.86
20394;BME280;10356;50.544;9.642;2023-05-01T07:18:47;98213.16;;;12.39;68.32
20394;BME280;10356;50.544;9.642;2023-05-01T07:21:13;98212.59;;;12.36;65.37
20394;BME280;10356;50.544;9.642;2023-05-01T07:23:40;98206.84;;;12.42;66.58
20394;BME280;10356;50.544;9.642;2023-05-01T07:26:06;98208.84;;;12.68;66.02
20394;BME280;10356;50.544;9.642;2023-05-01T07:28:33;98209.59;;;12.90;64.16
20394;BME280;10356;50.544;9.642;2023-05-01T07:30:59;98206.84;;;12.82;63.43
20394;BME280;10356;50.544;9.642;2023-05-01T07:33:28;98197.75;;;12.76;62.76
20394;BME280;10356;50.544;9.642;2023-05-01T07:35:54;98184.63;;;13.16;62.58
20394;BME280;10356;50.544;9.642;2023-05-01T07:38:22;98191.88;;;13.03;62.28
20394;BME280;10356;50.544;9.642;2023-05-01T07:40:51;98193.72;;;13.21;63.11
20394;BME280;10356;50.544;9.642;2023-05-01T07:43:17;98184.22;;;13.30;62.21
20394;BME280;10356;50.544;9.642;2023-05-01T07:45:53;98179.94;;;13.48;62.06
20394;BME280;10356;50.544;9.642;2023-05-01T07:48:20;98183.25;;;13.50;60.16
20394;BME280;10356;50.544;9.642;2023-05-01T07:50:48;98171.69;;;13.43;59.80
20394;BME280;10356;50.544;9.642;2023-05-01T07:53:14;98175.78;;;13.74;60.20
20394;BME280;10356;50.544;9.642;2023-05-01T07:55:41;98175.81;;;13.45;58.76
20394;BME280;10356;50.544;9.642;2023-05-01T07:58:07;98165.59;;;13.62;59.75
20394;BME280;10356;50.544;9.642;2023-05-01T08:00:34;98154.94;;;13.92;59.83
20394;BME280;10356;50.544;9.642;2023-05-01T08:03:01;98158.63;;;14.08;60.76
20394;BME280;10356;50.544;9.642;2023-05-01T08:05:27;98157.25;;;14.04;57.41
20394;BME280;10356;50.544;9.642;2023-05-01T08:07:57;98162.97;;;14.37;57.77
20394;BME280;10356;50.544;9.642;2023-05-01T08:10:23;98154.81;;;14.67;54.77
20394;BME280;10356;50.544;9.642;2023-05-01T08:12:50;98150.38;;;15.12;53.21
20394;BME280;10356;50.544;9.642;2023-05-01T08:15:16;98155.06;;;15.53;51.71
20394;BME280;10356;50.544;9.642;2023-05-01T08:17:43;98152.78;;;15.23;52.23
20394;BME280;10356;50.544;9.642;2023-05-01T08:20:11;98154.84;;;15.47;52.05
20394;BME280;10356;50.544;9.642;2023-05-01T08:22:38;98156.53;;;15.73;51.13
20394;BME280;10356;50.544;9.642;2023-05-01T08:25:06;98150.72;;;16.47;47.52
20394;BME280;10356;50.544;9.642;2023-05-01T08:27:33;98155.59;;;16.34;47.29
20394;BME280;10356;50.544;9.642;2023-05-01T08:30:00;98153.53;;;16.95;47.30
20394;BME280;10356;50.544;9.642;2023-05-01T08:32:26;98141.44;;;17.26;45.84
20394;BME280;10356;50.544;9.642;2023-05-01T08:34:53;98146.03;;;17.24;45.94
20394;BME280;10356;50.544;9.642;2023-05-01T08:37:19;98146.38;;;17.78;45.94
20394;BME280;10356;50.544;9.642;2023-05-01T08:39:46;98140.97;;;17.63;46.23
20394;BME280;10356;50.544;9.642;2023-05-01T08:42:14;98140.47;;;17.68;46.14
20394;BME280;10356;50.544;9.642;2023-05-01T08:44:42;98137.47;;;17.30;47.22
20394;BME280;10356;50.544;9.642;2023-05-01T08:47:10;98140.75;;;17.24;47.52
20394;BME280;10356;50.544;9.642;2023-05-01T08:49:39;98133.69;;;17.09;48.75
20394;BME280;10356;50.544;9.642;2023-05-01T08:52:07;98132.22;;;17.46;48.55
20394;BME280;10356;50.544;9.642;2023-05-01T08:54:35;98129.56;;;17.30;47.81
20394;BME280;10356;50.544;9.642;2023-05-01T08:57:05;98128.56;;;17.96;45.52
20394;BME280;10356;50.544;9.642;2023-05-01T08:59:33;98128.38;;;18.13;44.71
20394;BME280;10356;50.544;9.642;2023-05-01T09:02:01;98123.91;;;18.22;43.89
20394;BME280;10356;50.544;9.642;2023-05-01T09:04:30;98125.84;;;18.44;43.58
20394;BME280;10356;50.544;9.642;2023-05-01T09:06:57;98125.09;;;18.66;45.30
20394;BME280;10356;50.544;9.642;2023-05-01T09:09:25;98124.31;;;19.11;43.62
20394;BME280;10356;50.544;9.642;2023-05-01T09:11:52;98124.63;;;18.85;43.43
20394;BME280;10356;50.544;9.642;2023-05-01T09:14:20;98122.69;;;19.10;43.95
20394;BME280;10356;50.544;9.642;2023-05-01T09:16:48;98117.81;;;19.21;44.27
20394;BME280;10356;50.544;9.642;2023-05-01T09:19:14;98106.97;;;19.16;43.60
20394;BME280;10356;50.544;9.642;2023-05-01T09:21:41;98105.88;;;19.03;42.78
20394;BME280;10356;50.544;9.642;2023-05-01T09:24:08;98120.38;;;19.29;42.29
20394;BME280;10356;50.544;9.642;2023-05-01T09:26:35;98112.28;;;19.54;41.48
20394;BME280;10356;50.544;9.642;2023-05-01T09:29:06;98115.06;;;19.60;41.03
20394;BME280;10356;50.544;9.642;2023-05-01T09:31:34;98109.28;;;19.94;42.00
20394;BME280;10356;50.544;9.642;2023-05-01T09:34:04;98112.91;;;19.78;41.22
20394;BME280;10356;50.544;9.642;2023-05-01T09:36:32;98104.63;;;19.96;41.56
20394;BME280;10356;50.544;9.642;2023-05-01T09:39:00;98105.56;;;20.03;42.02
20394;BME280;10356;50.544;9.642;2023-05-01T09:41:26;98101.34;;;19.94;40.95
20394;BME280;10356;50.544;9.642;2023-05-01T09:43:55;98096.78;;;19.88;41.76
20394;BME280;10356;50.544;9.642;2023-05-01T09:46:22;98097.31;;;19.98;41.38
20394;BME280;10356;50.544;9.642;2023-05-01T09:48:53;98097.94;;;19.71;40.87
20394;BME280;10356;50.544;9.642;2023-05-01T09:51:23;98094.81;;;19.53;41.79
20394;BME280;10356;50.544;9.642;2023-05-01T09:53:51;98090.88;;;19.49;43.22
20394;BME280;10356;50.544;9.642;2023-05-01T09:56:18;98093.16;;;19.52;42.42
20394;BME280;10356;50.544;9.642;2023-05-01T09:58:45;98088.72;;;19.67;43.39
20394;BME280;10356;50.544;9.642;2023-05-01T10:01:12;98092.28;;;19.59;42.61
20394;BME280;10356;50.544;9.642;2023-05-01T10:03:39;98083.22;;;19.54;42.61
20394;BME280;10356;50.544;9.642;2023-05-01T10:06:08;98087.38;;;19.25;43.68
20394;BME280;10356;50.544;9.642;2023-05-01T10:08:46;98092.66;;;19.34;42.91
20394;BME280;10356;50.544;9.642;2023-05-01T10:11:13;98081.72;;;19.37;44.59
20394;BME280;10356;50.544;9.642;2023-05-01T10:13:40;98082.34;;;19.61;44.33
20394;BME280;10356;50.544;9.642;2023-05-01T10:16:26;98081.28;;;19.48;43.13
20394;BME280;10356;50.544;9.642;2023-05-01T10:18:54;98080.50;;;19.62;42.76
20394;BME280;10356;50.544;9.642;2023-05-01T10:21:20;98079.16;;;19.80;42.20
20394;BME280;10356;50.544;9.642;2023-05-01T10:23:48;98086.16;;;19.59;44.01
20394;BME280;10356;50.544;9.642;2023-05-01T10:26:16;98081.78;;;19.66;42.66
20394;BME280;10356;50.544;9.642;2023-05-01T10:28:45;98074.25;;;19.77;43.40
20394;BME280;10356;50.544;9.642;2023-05-01T10:31:13;98075.09;;;20.07;41.41
20394;BME280;10356;50.544;9.642;2023-05-01T10:33:41;98075.88;;;19.78;42.15
20394;BME280;10356;50.544;9.642;2023-05-01T10:36:10;98067.34;;;19.91;43.53
20394;BME280;10356;50.544;9.642;2023-05-01T10:38:39;98078.81;;;19.98;44.47
20394;BME280;10356;50.544;9.642;2023-05-01T10:41:11;98075.78;;;19.72;42.93
20394;BME280;10356;50.544;9.642;2023-05-01T10:43:37;98079.91;;;19.37;41.87
20394;BME280;10356;50.544;9.642;2023-05-01T10:46:27;98071.66;;;19.55;43.83
20394;BME280;10356;50.544;9.642;2023-05-01T10:48:56;98067.47;;;19.60;42.29
20394;BME280;10356;50.544;9.642;2023-05-01T10:51:23;98068.31;;;19.61;42.66
20394;BME280;10356;50.544;9.642;2023-05-01T10:54:23;98066.50;;;19.90;41.11
20394;BME280;10356;50.544;9.642;2023-05-01T10:56:54;98066.31;;;19.92;40.63
20394;BME280;10356;50.544;9.642;2023-05-01T10:59:20;98063.31;;;19.95;42.25
20394;BME280;10356;50.544;9.642;2023-05-01T11:01:48;98063.59;;;20.15;41.91
20394;BME280;10356;50.544;9.642;2023-05-01T11:04:44;98059.31;;;20.28;40.45
20394;BME280;10356;50.544;9.642;2023-05-01T11:07:14;98050.53;;;19.98;39.99
20394;BME280;10356;50.544;9.642;2023-05-01T11:09:43;98051.91;;;20.09;38.78
20394;BME280;10356;50.544;9.642;2023-05-01T11:12:13;98052.28;;;20.06;39.21
20394;BME280;10356;50.544;9.642;2023-05-01T11:15:02;98054.38;;;19.96;40.04
20394;BME280;10356;50.544;9.642;2023-05-01T11:17:45;98048.63;;;19.78;38.88
20394;BME280;10356;50.544;9.642;2023-05-01T11:20:47;98042.72;;;20.05;38.98
20394;BME280;10356;50.544;9.642;2023-05-01T11:23:21;98048.00;;;19.90;38.49
20394;BME280;10356;50.544;9.642;2023-05-01T11:25:49;98039.31;;;19.82;38.88
20394;BME280;10356;50.544;9.642;2023-05-01T11:28:29;98040.88;;;19.91;37.81
20394;BME280;10356;50.544;9.642;2023-05-01T11:30:56;98039.41;;;20.03;37.19
20394;BME280;10356;50.544;9.642;2023-05-01T11:33:23;98052.09;;;19.78;37.53
20394;BME280;10356;50.544;9.642;2023-05-01T11:36:00;98048.06;;;19.68;37.76
20394;BME280;10356;50.544;9.642;2023-05-01T11:38:27;98052.69;;;19.28;39.02
20394;BME280;10356;50.544;9.642;2023-05-01T11:40:57;98052.44;;;19.61;38.96
20394;BME280;10356;50.544;9.642;2023-05-01T11:43:24;98054.44;;;19.59;39.36
20394;BME280;10356;50.544;9.642;2023-05-01T11:45:53;98041.00;;;19.46;39.60
20394;BME280;10356;50.544;9.642;2023-05-01T11:48:26;98047.34;;;19.59;39.74
20394;BME280;10356;50.544;9.642;2023-05-01T11:50:53;98032.91;;;19.47;39.28
20394;BME280;10356;50.544;9.642;2023-05-01T11:53:20;98035.78;;;19.38;38.57
20394;BME280;10356;50.544;9.642;2023-05-01T11:55:46;98038.22;;;19.24;38.41
20394;BME280;10356;50.544;9.642;2023-05-01T11:58:13;98039.19;;;19.23;40.85
20394;BME280;10356;50.544;9.642;2023-05-01T12:00:41;98042.91;;;19.14;39.54
20394;BME280;10356;50.544;9.642;2023-05-01T12:03:10;98039.91;;;19.17;40.51
20394;BME280;10356;50.544;9.642;2023-05-01T12:05:39;98041.66;;;19.25;40.93
20394;BME280;10356;50.544;9.642;2023-05-01T12:08:08;98036.09;;;19.43;39.72
20394;BME280;10356;50.544;9.642;2023-05-01T12:10:36;98036.16;;;19.35;40.53
20394;BME280;10356;50.544;9.642;2023-05-01T12:13:03;98035.44;;;19.41;40.61
20394;BME280;10356;50.544;9.642;2023-05-01T12:15:34;98032.28;;;19.45;40.94
20394;BME280;10356;50.544;9.642;2023-05-01T12:18:02;98036.66;;;19.53;41.10
20394;BME280;10356;50.544;9.642;2023-05-01T12:20:40;98033.72;;;19.33;42.02
20394;BME280;10356;50.544;9.642;2023-05-01T12:23:09;98039.38;;;19.45;42.60
20394;BME280;10356;50.544;9.642;2023-05-01T12:25:36;98029.53;;;19.39;41.69
20394;BME280;10356;50.544;9.642;2023-05-01T12:28:08;98036.56;;;19.23;43.40
20394;BME280;10356;50.544;9.642;2023-05-01T12:30:35;98032.22;;;19.31;42.56
20394;BME280;10356;50.544;9.642;2023-05-01T12:33:08;98027.72;;;19.31;42.15
20394;BME280;10356;50.544;9.642;2023-05-01T12:35:35;98035.69;;;19.08;43.26
20394;BME280;10356;50.544;9.642;2023-05-01T12:38:10;98024.31;;;19.08;42.01
20394;BME280;10356;50.544;9.642;2023-05-01T12:40:38;98027.13;;;19.06;44.39
20394;BME280;10356;50.544;9.642;2023-05-01T12:43:05;98032.28;;;19.22;44.02
20394;BME280;10356;50.544;9.642;2023-05-01T12:45:38;98035.91;;;19.21;43.26
20394;BME280;10356;50.544;9.642;2023-05-01T12:48:10;98024.13;;;18.87;43.21
20394;BME280;10356;50.544;9.642;2023-05-01T12:50:37;98018.31;;;18.91;45.02
20394;BME280;10356;50.544;9.642;2023-05-01T12:53:03;98026.41;;;18.67;44.62
20394;BME280;10356;50.544;9.642;2023-05-01T12:55:44;98021.44;;;18.72;45.47
20394;BME280;10356;50.544;9.642;2023-05-01T12:58:11;98019.59;;;18.50;45.03
20394;BME280;10356;50.544;9.642;2023-05-01T13:00:46;98023.41;;;18.48;45.07
20394;BME280;10356;50.544;9.642;2023-05-01T13:03:13;98021.28;;;18.43;44.52
20394;BME280;10356;50.544;9.642;2023-05-01T13:05:52;98024.00;;;18.19;45.39
20394;BME280;10356;50.544;9.642;2023-05-01T13:08:26;98014.50;;;18.40;45.13
20394;BME280;10356;50.544;9.642;2023-05-01T13:10:56;98017.91;;;18.57;46.76
20394;BME280;10356;50.544;9.642;2023-05-01T13:13:24;98011.28;;;18.61;46.20